ADDS METAR Data INFO
IDs: Format: Raw Decoded Include TAF

Data at: 2052 UTC 24 Jun 2017

KDAL 242012Z 04010KT 10SM SCT026 BKN033 OVC200 27/21 A3009 RMK AO2 SCT V BKN T02670211 $
KDAL 241953Z 07010KT 10SM BKN026 BKN033 OVC200 27/21 A3009 RMK AO2 SLP182 T02670206 $
KDAL 241939Z 05012KT 10SM BKN024 BKN030 BKN038 BKN130 OVC200 27/21 A3008 RMK AO2 T02720211 $
KDAL 241853Z 07010G19KT 10SM FEW014 SCT130 BKN200 BKN250 26/21 A3008 RMK AO2 SLP179 T02610211 $
KDAL 241753Z 06006KT 10SM FEW015 SCT050 BKN130 BKN180 24/21 A3011 RMK AO2 RAE11 SLP188 P0000 60089 T02390211 10239 20211 56023 $
KDAL 241653Z 00000KT 10SM -RA FEW050 BKN080 OVC120 23/20 A3011 RMK AO2 SLP187 P0001 T02280200 $
KDAL 241553Z VRB04KT 10SM -RA SCT075 OVC100 22/20 A3015 RMK AO2 SLP203 P0012 T02170200 $
KDAL 241453Z 34003KT 4SM RA BR FEW015 BKN060CB OVC080 21/19 A3018 RMK AO2 TSE47 SLP211 TS DSPTD CB ALQDS MOV SE P0036 60076 T02110194 51035 $
KDAL 241447Z 30005KT 4SM +RA BR FEW015 BKN060CB OVC080 21/20 A3017 RMK AO2 TSE47 TS DSPTD CB ALQDS MOV SE P0034 $
KDAL 241353Z 01011KT 2 1/2SM +TSRA BR FEW007 SCT048CB OVC070 22/21 A3017 RMK AO2 SLP208 OCNL LTGICCCCG TS ALQDS MOV SE P0020 T02220211 $
KDAL 241303Z 34007KT 4SM -TSRA BR FEW007 SCT025CB OVC060 22/21 A3012 RMK AO2 VIS NW 3 OCNL LTGICCCCG TS ALQDS MOV SE P0003 T02170211 $
KDAL 241253Z 32010KT 3SM TSRA BR FEW005 BKN011 OVC024CB 22/21 A3012 RMK AO2 RAB20 SLP191 VIS W-NW 1 1/2 FRQ LTGICCCCG TS ALQDS MOV SE P0020 T02220211 $
KDAL 241244Z 30009KT 1 1/2SM R13L/4500VP6000FT +TSRA BR FEW005 BKN011 OVC024CB 22/21 A3012 RMK AO2 RAB20 VIS SE-S 3 FRQ LTGICCCCG TS ALQDS MOV SE P0014 T02220211 $
KDAL 241237Z 30008KT 3SM +TSRA BR SCT007 BKN011 OVC022CB 22/21 A3012 RMK AO2 RAB20 FRQ LTGICCCCG TS ALQDS MOV SE P0002 T02220211 $
KDAL 241153Z 27003KT 10SM TS BKN011 BKN048CB OVC110 24/22 A3007 RMK AO2 TSB42 SLP175 OCNL LTGICCCCG TS SW-NW MOV SE 60091 70091 T02390217 10256 20228 53035 $
KDAL 241142Z 00000KT 10SM TS BKN011 BKN048CB BKN140 OVC250 23/22 A3005 RMK AO2 TSB42 PRESRR OCNL LTGICCCCG TS W-NW MOV SE T02330217 $
KDAL 241124Z 09006KT 10SM SCT015 BKN048 BKN140 OVC250 23/22 A3003 RMK AO2 OCNL LTGIC DSNT W-NW CB DSNT W-NW MOV S T02330217 $
KDAL 241108Z 09003KT 10SM BKN015 BKN055 OVC250 23/22 A3002 RMK AO2 OCNL LTGIC DSNT W-NW CB DSNT SE AND W-NW MOV S T02330217 $
KDAL 241053Z 10004KT 10SM FEW049 SCT055 BKN140 OVC250 23/21 A3001 RMK AO2 RAE50 PRESRR SLP155 OCNL LTGIC DSNT SE CB DSNT SE MOV S P0000 T02330211 $
KDAL 240953Z 15007KT 10SM -RA FEW010 SCT075 BKN100 OVC210 23/21 A2999 RMK AO2 TSE44 PRESRR SLP146 OCNL LTGIC DSNT SE-SW CB DSNT SE-SW MOV S P0001 T02330211 $
KDAL 240945Z 18007KT 10SM -RA FEW010 SCT075 BKN100 OVC210 24/21 A2997 RMK AO2 TSE44 OCNL LTGIC DSNT SE-SW CB DSNT SE-SW MOV S P0001 T02390211 $
KDAL 240853Z 11007KT 10SM -TSRA FEW010 FEW040CB BKN100 OVC210 24/22 A2996 RMK AO2 RAB51 SLP139 OCNL LTGICCGCA SE-SW AND DSNT NW TS SE-SW MOV S CB DSNT NW MOV S P0000 60090 T02390222 53003 $
KDAL 240753Z 22003KT 10SM TS FEW010 SCT040CB BKN100 OVC210 23/22 A2995 RMK AO2 RAE0655 SLP133 OCNL LTGICCGCA S-W TS S-W MOV S P0000 T02330217 $
KDAL 240708Z 20010G17KT 10SM TS FEW007 SCT040CB OVC110 23/22 A2994 RMK AO2 RAE0655 OCNL LTGICCGCA S-W TS S-W MOV S P0000 T02330222 $
KDAL 240653Z 21011G14KT 9SM -TSRA FEW021 SCT040CB OVC110 24/22 A2996 RMK AO2 PK WND 06026/0616 SLP137 FRQ LTGICCG S-W-NW TS S-W-NW MOV S P0090 T02390222 $
KDAL 240640Z COR VRB03KT 6SM -TSRA BR BKN018 BKN040CB OVC110 24/23 A2996 RMK AO2 PK WND 06026/0616 FRQ LTGICCG S-W-NW TS S-W-NW MOV S P0090 T02390228 $
KDAL 240633Z 07009G22KT 030V090 2 1/2SM R13L/5000VP6000FT -TSRA BR BKN018 BKN040CB OVC047 23/23 A2994 RMK AO2 PK WND 06026/0616 FRQ LTGICCG SW-NW TS SW-NW MOV S P0089 T02330228
KDAL 240622Z 09021G26KT 3/4SM R13L/2600V5500FT +TSRA BR SCT014 BKN029CB OVC047 23/23 A2993 RMK AO2 PK WND 06026/0616 PRESFR FRQ LTGICCG OHD TS OHD MOV S P0059 T02330228
KDAL 240611Z 04019G25KT 1 3/4SM R13L/6000VP6000FT +TSRA BR BKN029CB BKN038 OVC047 24/22 A2996 RMK AO2 FRQ LTGICCG OHD TS OHD MOV S P0008 T02390222
KDAL 240553Z 09020G26KT 10SM -TSRA BKN027CB OVC065 26/21 A2995 RMK AO2 PK WND 07027/0544 WSHFT 0521 RAB45 TSB0459 SLP136 FROPA FRQ LTGICCG NW-N-E TS NW-N-E MOV S P0000 60000 T02560211 10356 20256 403830256 53034
KDAL 240541Z 06017G26KT 10SM TS FEW027 SCT050CB BKN065 OVC250 28/21 A2995 RMK AO2 PK WND 05026/0533 WSHFT 0521 TSB0459 FROPA FRQ LTGICCG NW-N-E TS NW-N-E MOV S T02830206
KDAL 240500Z 15013KT 10SM TS SCT055CB BKN250 32/24 A2991 RMK AO2 TSB0459 CONS LTGICCG NW-NE AND DSNT E TS NW-NE MOV S CB DSNT E MOV S T03170244
KDAL 240453Z 15012KT 10SM SCT055 BKN250 32/24 A2990 RMK AO2 SLP115 FRQ LTGICCG DSNT NW-N-E CB DSNT NW-N-E MOV S T03170244
KDAL 240353Z 12007KT 10SM FEW055 BKN250 33/24 A2989 RMK AO2 SLP112 FRQ LTGIC DSNT NE AND SE CB DSNT NE AND SE MOV S T03280239
KDAL 240253Z 12008KT 10SM FEW050 BKN250 33/24 A2985 RMK AO2 SLP100 FRQ LTGIC DSNT NE CB DSNT NE MOV S T03280239 52024
KDAL 240153Z 09008KT 10SM FEW050 SCT250 34/23 A2983 RMK AO2 SLP094 TCU DSNT W-NW T03390233
KDAL 240053Z 10008KT 10SM FEW050 FEW250 35/21 A2980 RMK AO2 SLP083 CB DSNT NE DSIPTD T03500206
KDAL 232353Z 12010KT 10SM FEW050 FEW250 36/22 A2978 RMK AO2 SLP076 CB DSNT NE MOV SW T03560222 10383 20333 55004
KDAL 232253Z 14005KT 10SM FEW050 FEW250 36/22 A2977 RMK AO2 SLP071 CB DSNT N DSIPTD T03610222
KDAL 232153Z 05007KT 10SM FEW050 SCT250 37/23 A2979 RMK AO2 SLP080 CB DSNT N MOV S T03670233
KDAL 232053Z 00000KT 10SM FEW040 SCT300 36/22 A2979 RMK AO2 SLP080 T03610222 58002
KDAL 231953Z 00000KT 10SM FEW030 FEW300 37/23 A2979 RMK AO2 SLP079 T03670228
KDAL 231853Z 24006KT 10SM FEW035 FEW250 FEW300 35/23 A2980 RMK AO2 SLP084 T03500228
KDAL 231753Z 17009KT 10SM FEW030 FEW250 SCT300 33/24 A2980 RMK AO2 SLP082 T03330239 10339 20256 55000
KDAL 231653Z 19006KT 10SM FEW030 SCT300 33/24 A2979 RMK AO2 SLP081 T03280244
KDAL 231553Z 17009KT 10SM FEW025 FEW200 BKN300 31/24 A2979 RMK AO2 SLP080 T03060239
KDAL 231453Z VRB04KT 10SM FEW009 SCT018 BKN300 29/24 A2980 RMK AO2 SLP084 T02890239 51020
KDAL 231353Z 18009KT 10SM FEW009 SCT014 BKN300 28/23 A2978 RMK AO2 SLP078 T02780233
KDAL 231253Z 18008KT 10SM FEW007 BKN300 27/23 A2977 RMK AO2 SLP072 T02670233
KDAL 231153Z 18008KT 10SM FEW007 BKN300 26/23 A2974 RMK AO2 SLP063 T02610233 10283 20256 53008
KDAL 231053Z 18007KT 10SM SCT300 26/23 A2973 RMK AO2 SLP059 T02610233
KDAL 230953Z 16006KT 10SM SCT300 26/23 A2972 RMK AO2 SLP058 T02610228
KDAL 230853Z 18004KT 10SM SCT300 26/22 A2972 RMK AO2 SLP055 T02610222 58000


Page loaded:  20:52 UTC  |   01:52 PM Pacific  |   02:52 PM Mountain  |   03:52 PM Central  |   04:52 PM Eastern

 

ADVISORIES

FORECASTS

FORECASTS

OBSERVATIONS

USER TOOLS

ABOUT US